sensor_id;sensor_type;location;lat;lon;timestamp;P1;durP1;ratioP1;P2;durP2;ratioP2
44746;SDS011;30472;49.490;10.972;2023-08-07T00:00:22;4.67;;;1.17;;
44746;SDS011;30472;49.490;10.972;2023-08-07T00:02:48;1.20;;;1.17;;
44746;SDS011;30472;49.490;10.972;2023-08-07T00:05:14;1.27;;;1.13;;
44746;SDS011;30472;49.490;10.972;2023-08-07T00:07:41;2.43;;;1.00;;
44746;SDS011;30472;49.490;10.972;2023-08-07T00:10:07;1.70;;;1.20;;
44746;SDS011;30472;49.490;10.972;2023-08-07T00:12:33;1.30;;;1.00;;
44746;SDS011;30472;49.490;10.972;2023-08-07T00:14:58;1.17;;;1.07;;
44746;SDS011;30472;49.490;10.972;2023-08-07T00:17:25;1.00;;;1.00;;
44746;SDS011;30472;49.490;10.972;2023-08-07T00:19:51;2.10;;;1.23;;
44746;SDS011;30472;49.490;10.972;2023-08-07T00:22:16;0.87;;;0.87;;
44746;SDS011;30472;49.490;10.972;2023-08-07T00:24:44;1.30;;;1.20;;
44746;SDS011;30472;49.490;10.972;2023-08-07T00:27:09;1.03;;;1.03;;
44746;SDS011;30472;49.490;10.972;2023-08-07T00:29:35;1.10;;;1.10;;
44746;SDS011;30472;49.490;10.972;2023-08-07T00:32:01;1.07;;;1.00;;
44746;SDS011;30472;49.490;10.972;2023-08-07T00:34:28;1.40;;;1.30;;
44746;SDS011;30472;49.490;10.972;2023-08-07T00:36:54;0.97;;;0.97;;
44746;SDS011;30472;49.490;10.972;2023-08-07T00:39:20;0.67;;;0.67;;
44746;SDS011;30472;49.490;10.972;2023-08-07T00:41:46;1.10;;;1.10;;
44746;SDS011;30472;49.490;10.972;2023-08-07T00:44:11;1.30;;;1.20;;
44746;SDS011;30472;49.490;10.972;2023-08-07T00:46:37;2.27;;;1.20;;
44746;SDS011;30472;49.490;10.972;2023-08-07T00:49:04;1.23;;;1.10;;
44746;SDS011;30472;49.490;10.972;2023-08-07T00:51:31;2.27;;;1.10;;
44746;SDS011;30472;49.490;10.972;2023-08-07T00:53:58;0.90;;;0.90;;
44746;SDS011;30472;49.490;10.972;2023-08-07T00:56:25;0.90;;;0.90;;
44746;SDS011;30472;49.490;10.972;2023-08-07T00:58:53;2.53;;;1.07;;
44746;SDS011;30472;49.490;10.972;2023-08-07T01:01:18;5.23;;;1.17;;
44746;SDS011;30472;49.490;10.972;2023-08-07T01:03:44;1.20;;;1.10;;
44746;SDS011;30472;49.490;10.972;2023-08-07T01:06:10;1.20;;;1.20;;
44746;SDS011;30472;49.490;10.972;2023-08-07T01:08:36;1.33;;;1.23;;
44746;SDS011;30472;49.490;10.972;2023-08-07T01:11:14;1.60;;;1.50;;
44746;SDS011;30472;49.490;10.972;2023-08-07T01:16:59;0.83;;;0.83;;
44746;SDS011;30472;49.490;10.972;2023-08-07T01:19:29;1.50;;;1.40;;
44746;SDS011;30472;49.490;10.972;2023-08-07T01:22:05;1.20;;;1.20;;
44746;SDS011;30472;49.490;10.972;2023-08-07T01:24:31;2.30;;;1.30;;
44746;SDS011;30472;49.490;10.972;2023-08-07T01:26:58;1.17;;;1.07;;
44746;SDS011;30472;49.490;10.972;2023-08-07T01:29:33;2.40;;;1.00;;
44746;SDS011;30472;49.490;10.972;2023-08-07T01:32:07;1.57;;;1.20;;
44746;SDS011;30472;49.490;10.972;2023-08-07T01:34:35;2.03;;;1.40;;
44746;SDS011;30472;49.490;10.972;2023-08-07T01:37:03;1.20;;;1.10;;
44746;SDS011;30472;49.490;10.972;2023-08-07T01:39:31;1.30;;;1.30;;
44746;SDS011;30472;49.490;10.972;2023-08-07T01:41:57;1.40;;;1.20;;
44746;SDS011;30472;49.490;10.972;2023-08-07T01:44:25;2.40;;;1.00;;
44746;SDS011;30472;49.490;10.972;2023-08-07T01:46:52;1.53;;;1.43;;
44746;SDS011;30472;49.490;10.972;2023-08-07T01:49:18;2.30;;;1.40;;
44746;SDS011;30472;49.490;10.972;2023-08-07T01:51:43;2.00;;;1.10;;
44746;SDS011;30472;49.490;10.972;2023-08-07T01:54:09;1.80;;;1.10;;
44746;SDS011;30472;49.490;10.972;2023-08-07T01:56:35;1.40;;;1.30;;
44746;SDS011;30472;49.490;10.972;2023-08-07T01:59:00;2.00;;;1.30;;
44746;SDS011;30472;49.490;10.972;2023-08-07T02:01:26;1.03;;;1.03;;
44746;SDS011;30472;49.490;10.972;2023-08-07T02:03:51;1.83;;;1.20;;
44746;SDS011;30472;49.490;10.972;2023-08-07T02:06:17;1.47;;;1.33;;
44746;SDS011;30472;49.490;10.972;2023-08-07T02:08:42;1.70;;;1.30;;
44746;SDS011;30472;49.490;10.972;2023-08-07T02:11:08;1.33;;;1.23;;
44746;SDS011;30472;49.490;10.972;2023-08-07T02:13:33;1.57;;;1.30;;
44746;SDS011;30472;49.490;10.972;2023-08-07T02:15:59;1.77;;;1.50;;
44746;SDS011;30472;49.490;10.972;2023-08-07T02:18:24;1.43;;;1.30;;
44746;SDS011;30472;49.490;10.972;2023-08-07T02:20:50;1.53;;;1.43;;
44746;SDS011;30472;49.490;10.972;2023-08-07T02:23:16;3.43;;;1.73;;
44746;SDS011;30472;49.490;10.972;2023-08-07T02:25:41;1.57;;;1.30;;
44746;SDS011;30472;49.490;10.972;2023-08-07T02:28:07;2.27;;;1.23;;
44746;SDS011;30472;49.490;10.972;2023-08-07T02:30:32;1.30;;;1.20;;
44746;SDS011;30472;49.490;10.972;2023-08-07T02:32:58;1.60;;;1.50;;
44746;SDS011;30472;49.490;10.972;2023-08-07T02:35:23;1.67;;;1.57;;
44746;SDS011;30472;49.490;10.972;2023-08-07T02:37:49;1.97;;;1.77;;
44746;SDS011;30472;49.490;10.972;2023-08-07T02:40:15;1.57;;;1.47;;
44746;SDS011;30472;49.490;10.972;2023-08-07T02:42:42;1.50;;;1.40;;
44746;SDS011;30472;49.490;10.972;2023-08-07T02:45:08;1.50;;;1.40;;
44746;SDS011;30472;49.490;10.972;2023-08-07T02:47:34;2.67;;;1.60;;
44746;SDS011;30472;49.490;10.972;2023-08-07T02:49:59;1.97;;;1.87;;
44746;SDS011;30472;49.490;10.972;2023-08-07T02:52:25;1.80;;;1.70;;
44746;SDS011;30472;49.490;10.972;2023-08-07T02:54:50;2.10;;;1.63;;
44746;SDS011;30472;49.490;10.972;2023-08-07T02:57:16;2.20;;;1.60;;
44746;SDS011;30472;49.490;10.972;2023-08-07T02:59:41;2.17;;;1.73;;
44746;SDS011;30472;49.490;10.972;2023-08-07T03:02:07;2.10;;;1.90;;
44746;SDS011;30472;49.490;10.972;2023-08-07T03:04:32;2.00;;;1.90;;
44746;SDS011;30472;49.490;10.972;2023-08-07T03:06:58;5.63;;;2.27;;
44746;SDS011;30472;49.490;10.972;2023-08-07T03:09:25;2.00;;;1.80;;
44746;SDS011;30472;49.490;10.972;2023-08-07T03:11:50;2.33;;;1.97;;
44746;SDS011;30472;49.490;10.972;2023-08-07T03:14:16;2.20;;;1.67;;
44746;SDS011;30472;49.490;10.972;2023-08-07T03:16:41;1.70;;;1.60;;
44746;SDS011;30472;49.490;10.972;2023-08-07T03:19:07;1.53;;;1.43;;
44746;SDS011;30472;49.490;10.972;2023-08-07T03:21:32;4.60;;;2.20;;
44746;SDS011;30472;49.490;10.972;2023-08-07T03:23:58;2.10;;;2.00;;
44746;SDS011;30472;49.490;10.972;2023-08-07T03:26:23;2.30;;;2.10;;
44746;SDS011;30472;49.490;10.972;2023-08-07T03:28:49;2.13;;;1.70;;
44746;SDS011;30472;49.490;10.972;2023-08-07T03:31:16;2.10;;;1.90;;
44746;SDS011;30472;49.490;10.972;2023-08-07T03:33:41;3.73;;;1.97;;
44746;SDS011;30472;49.490;10.972;2023-08-07T03:36:07;4.23;;;1.90;;
44746;SDS011;30472;49.490;10.972;2023-08-07T03:38:34;2.60;;;2.00;;
44746;SDS011;30472;49.490;10.972;2023-08-07T03:40:59;2.83;;;2.30;;
44746;SDS011;30472;49.490;10.972;2023-08-07T03:43:25;2.13;;;1.93;;
44746;SDS011;30472;49.490;10.972;2023-08-07T03:45:56;2.83;;;1.90;;
44746;SDS011;30472;49.490;10.972;2023-08-07T03:48:22;3.67;;;2.50;;
44746;SDS011;30472;49.490;10.972;2023-08-07T03:50:48;4.13;;;2.30;;
44746;SDS011;30472;49.490;10.972;2023-08-07T03:53:13;4.60;;;2.27;;
44746;SDS011;30472;49.490;10.972;2023-08-07T03:55:39;4.20;;;1.97;;
44746;SDS011;30472;49.490;10.972;2023-08-07T03:58:06;2.87;;;2.17;;
44746;SDS011;30472;49.490;10.972;2023-08-07T04:00:32;3.40;;;2.50;;
44746;SDS011;30472;49.490;10.972;2023-08-07T04:02:57;4.20;;;2.30;;
44746;SDS011;30472;49.490;10.972;2023-08-07T04:05:23;3.97;;;2.10;;
44746;SDS011;30472;49.490;10.972;2023-08-07T04:07:49;4.07;;;1.90;;
44746;SDS011;30472;49.490;10.972;2023-08-07T04:10:14;2.90;;;2.30;;
44746;SDS011;30472;49.490;10.972;2023-08-07T04:12:40;4.20;;;2.60;;
44746;SDS011;30472;49.490;10.972;2023-08-07T04:15:06;4.33;;;2.10;;
44746;SDS011;30472;49.490;10.972;2023-08-07T04:17:32;6.80;;;2.60;;
44746;SDS011;30472;49.490;10.972;2023-08-07T04:19:57;2.70;;;2.40;;
44746;SDS011;30472;49.490;10.972;2023-08-07T04:22:23;4.13;;;2.40;;
44746;SDS011;30472;49.490;10.972;2023-08-07T04:24:48;3.80;;;2.60;;
44746;SDS011;30472;49.490;10.972;2023-08-07T04:27:14;5.83;;;2.30;;
44746;SDS011;30472;49.490;10.972;2023-08-07T04:29:39;3.53;;;2.63;;
44746;SDS011;30472;49.490;10.972;2023-08-07T04:32:05;2.40;;;2.20;;
44746;SDS011;30472;49.490;10.972;2023-08-07T04:34:31;7.30;;;2.60;;
44746;SDS011;30472;49.490;10.972;2023-08-07T04:36:57;3.13;;;2.40;;
44746;SDS011;30472;49.490;10.972;2023-08-07T04:39:22;4.10;;;2.13;;
44746;SDS011;30472;49.490;10.972;2023-08-07T04:41:48;5.10;;;2.37;;
44746;SDS011;30472;49.490;10.972;2023-08-07T04:44:16;4.70;;;2.60;;
44746;SDS011;30472;49.490;10.972;2023-08-07T04:46:42;3.70;;;2.30;;
44746;SDS011;30472;49.490;10.972;2023-08-07T04:49:07;5.70;;;2.93;;
44746;SDS011;30472;49.490;10.972;2023-08-07T04:51:33;5.07;;;3.23;;
44746;SDS011;30472;49.490;10.972;2023-08-07T04:53:58;3.30;;;2.23;;
44746;SDS011;30472;49.490;10.972;2023-08-07T04:56:24;3.67;;;2.50;;
44746;SDS011;30472;49.490;10.972;2023-08-07T04:58:50;6.10;;;2.60;;
44746;SDS011;30472;49.490;10.972;2023-08-07T05:01:16;5.77;;;2.90;;
44746;SDS011;30472;49.490;10.972;2023-08-07T05:03:43;3.43;;;2.90;;
44746;SDS011;30472;49.490;10.972;2023-08-07T05:06:08;5.07;;;3.10;;
44746;SDS011;30472;49.490;10.972;2023-08-07T05:08:34;5.10;;;2.87;;
44746;SDS011;30472;49.490;10.972;2023-08-07T05:10:59;3.53;;;2.93;;
44746;SDS011;30472;49.490;10.972;2023-08-07T05:13:25;4.13;;;2.90;;
44746;SDS011;30472;49.490;10.972;2023-08-07T05:15:50;5.07;;;2.90;;
44746;SDS011;30472;49.490;10.972;2023-08-07T05:18:16;5.97;;;3.13;;
44746;SDS011;30472;49.490;10.972;2023-08-07T05:20:42;6.53;;;2.73;;
44746;SDS011;30472;49.490;10.972;2023-08-07T05:23:08;4.10;;;2.87;;
44746;SDS011;30472;49.490;10.972;2023-08-07T05:25:35;4.80;;;2.60;;
44746;SDS011;30472;49.490;10.972;2023-08-07T05:28:00;4.97;;;2.80;;
44746;SDS011;30472;49.490;10.972;2023-08-07T05:30:26;4.07;;;2.73;;
44746;SDS011;30472;49.490;10.972;2023-08-07T05:32:52;5.73;;;2.80;;
44746;SDS011;30472;49.490;10.972;2023-08-07T05:35:18;6.20;;;3.30;;
44746;SDS011;30472;49.490;10.972;2023-08-07T05:37:44;8.27;;;3.47;;
44746;SDS011;30472;49.490;10.972;2023-08-07T05:40:10;5.07;;;3.00;;
44746;SDS011;30472;49.490;10.972;2023-08-07T05:42:37;7.27;;;3.53;;
44746;SDS011;30472;49.490;10.972;2023-08-07T05:45:02;4.03;;;3.23;;
44746;SDS011;30472;49.490;10.972;2023-08-07T05:47:28;3.17;;;2.50;;
44746;SDS011;30472;49.490;10.972;2023-08-07T05:49:54;2.97;;;2.30;;
44746;SDS011;30472;49.490;10.972;2023-08-07T05:52:20;3.70;;;2.10;;
44746;SDS011;30472;49.490;10.972;2023-08-07T05:54:45;4.27;;;2.50;;
44746;SDS011;30472;49.490;10.972;2023-08-07T05:57:11;3.20;;;2.37;;
44746;SDS011;30472;49.490;10.972;2023-08-07T05:59:36;4.43;;;2.10;;
44746;SDS011;30472;49.490;10.972;2023-08-07T06:02:02;4.07;;;2.70;;
44746;SDS011;30472;49.490;10.972;2023-08-07T06:04:29;5.07;;;2.30;;
44746;SDS011;30472;49.490;10.972;2023-08-07T06:06:55;2.60;;;2.40;;
44746;SDS011;30472;49.490;10.972;2023-08-07T06:09:20;5.93;;;2.63;;
44746;SDS011;30472;49.490;10.972;2023-08-07T06:11:47;4.53;;;2.50;;
44746;SDS011;30472;49.490;10.972;2023-08-07T06:14:12;4.37;;;2.57;;
44746;SDS011;30472;49.490;10.972;2023-08-07T06:16:38;3.70;;;2.23;;
44746;SDS011;30472;49.490;10.972;2023-08-07T06:19:04;5.07;;;2.50;;
44746;SDS011;30472;49.490;10.972;2023-08-07T06:21:29;6.50;;;2.47;;
44746;SDS011;30472;49.490;10.972;2023-08-07T06:23:56;6.13;;;2.27;;
44746;SDS011;30472;49.490;10.972;2023-08-07T06:26:22;4.37;;;2.30;;
44746;SDS011;30472;49.490;10.972;2023-08-07T06:28:47;4.07;;;2.40;;
44746;SDS011;30472;49.490;10.972;2023-08-07T06:31:15;2.43;;;2.10;;
44746;SDS011;30472;49.490;10.972;2023-08-07T06:33:40;2.37;;;2.10;;
44746;SDS011;30472;49.490;10.972;2023-08-07T06:36:06;3.00;;;2.30;;
44746;SDS011;30472;49.490;10.972;2023-08-07T06:38:35;4.33;;;2.53;;
44746;SDS011;30472;49.490;10.972;2023-08-07T06:41:01;2.77;;;2.03;;
44746;SDS011;30472;49.490;10.972;2023-08-07T06:43:27;5.97;;;2.33;;
44746;SDS011;30472;49.490;10.972;2023-08-07T06:45:56;5.40;;;2.10;;
44746;SDS011;30472;49.490;10.972;2023-08-07T06:48:22;3.47;;;2.10;;
44746;SDS011;30472;49.490;10.972;2023-08-07T06:50:48;2.90;;;2.10;;
44746;SDS011;30472;49.490;10.972;2023-08-07T06:53:14;3.43;;;2.03;;
44746;SDS011;30472;49.490;10.972;2023-08-07T06:55:41;3.60;;;2.60;;
44746;SDS011;30472;49.490;10.972;2023-08-07T06:58:06;3.50;;;2.10;;
44746;SDS011;30472;49.490;10.972;2023-08-07T07:00:33;4.00;;;2.27;;
44746;SDS011;30472;49.490;10.972;2023-08-07T07:03:00;3.87;;;1.90;;
44746;SDS011;30472;49.490;10.972;2023-08-07T07:05:26;3.07;;;2.17;;
44746;SDS011;30472;49.490;10.972;2023-08-07T07:07:51;4.17;;;2.50;;
44746;SDS011;30472;49.490;10.972;2023-08-07T07:10:17;3.87;;;2.43;;
44746;SDS011;30472;49.490;10.972;2023-08-07T07:12:43;2.87;;;2.37;;
44746;SDS011;30472;49.490;10.972;2023-08-07T07:15:08;3.27;;;2.20;;
44746;SDS011;30472;49.490;10.972;2023-08-07T07:17:34;3.03;;;1.90;;
44746;SDS011;30472;49.490;10.972;2023-08-07T07:20:00;2.77;;;2.10;;
44746;SDS011;30472;49.490;10.972;2023-08-07T07:22:26;2.27;;;2.07;;
44746;SDS011;30472;49.490;10.972;2023-08-07T07:24:53;3.37;;;2.60;;
44746;SDS011;30472;49.490;10.972;2023-08-07T07:27:19;2.80;;;2.03;;
44746;SDS011;30472;49.490;10.972;2023-08-07T07:29:44;2.93;;;2.20;;
44746;SDS011;30472;49.490;10.972;2023-08-07T07:32:10;4.00;;;2.30;;
44746;SDS011;30472;49.490;10.972;2023-08-07T07:34:35;4.50;;;2.20;;
44746;SDS011;30472;49.490;10.972;2023-08-07T07:37:01;3.53;;;2.20;;
44746;SDS011;30472;49.490;10.972;2023-08-07T07:39:28;3.53;;;2.17;;
44746;SDS011;30472;49.490;10.972;2023-08-07T07:41:55;3.93;;;2.13;;
44746;SDS011;30472;49.490;10.972;2023-08-07T07:44:20;3.93;;;2.27;;
44746;SDS011;30472;49.490;10.972;2023-08-07T07:46:46;4.40;;;2.57;;
44746;SDS011;30472;49.490;10.972;2023-08-07T07:49:11;3.77;;;2.00;;
44746;SDS011;30472;49.490;10.972;2023-08-07T07:51:37;4.20;;;2.50;;
44746;SDS011;30472;49.490;10.972;2023-08-07T07:54:03;4.07;;;2.30;;
44746;SDS011;30472;49.490;10.972;2023-08-07T07:56:28;4.37;;;2.13;;
44746;SDS011;30472;49.490;10.972;2023-08-07T07:58:54;5.27;;;2.20;;
44746;SDS011;30472;49.490;10.972;2023-08-07T08:01:19;4.77;;;2.47;;
44746;SDS011;30472;49.490;10.972;2023-08-07T08:03:45;4.13;;;2.20;;
44746;SDS011;30472;49.490;10.972;2023-08-07T08:06:11;4.30;;;2.60;;
44746;SDS011;30472;49.490;10.972;2023-08-07T08:08:37;4.83;;;2.27;;
44746;SDS011;30472;49.490;10.972;2023-08-07T08:11:03;2.93;;;2.20;;
44746;SDS011;30472;49.490;10.972;2023-08-07T08:13:29;4.80;;;2.10;;
44746;SDS011;30472;49.490;10.972;2023-08-07T08:15:54;3.37;;;2.17;;
44746;SDS011;30472;49.490;10.972;2023-08-07T08:18:20;7.10;;;2.70;;
44746;SDS011;30472;49.490;10.972;2023-08-07T08:20:45;4.10;;;2.30;;
44746;SDS011;30472;49.490;10.972;2023-08-07T08:23:11;4.63;;;2.63;;
44746;SDS011;30472;49.490;10.972;2023-08-07T08:25:36;6.03;;;2.80;;
44746;SDS011;30472;49.490;10.972;2023-08-07T08:28:03;4.67;;;2.40;;
44746;SDS011;30472;49.490;10.972;2023-08-07T08:30:29;3.57;;;2.10;;
44746;SDS011;30472;49.490;10.972;2023-08-07T08:32:54;4.30;;;2.43;;
44746;SDS011;30472;49.490;10.972;2023-08-07T08:35:20;4.87;;;2.33;;
44746;SDS011;30472;49.490;10.972;2023-08-07T08:37:46;4.57;;;2.23;;
44746;SDS011;30472;49.490;10.972;2023-08-07T08:40:12;4.23;;;2.30;;
44746;SDS011;30472;49.490;10.972;2023-08-07T08:42:42;3.03;;;2.20;;
44746;SDS011;30472;49.490;10.972;2023-08-07T08:45:09;6.43;;;2.40;;
44746;SDS011;30472;49.490;10.972;2023-08-07T08:47:38;4.73;;;2.20;;
44746;SDS011;30472;49.490;10.972;2023-08-07T08:52:35;5.57;;;2.17;;
44746;SDS011;30472;49.490;10.972;2023-08-07T08:55:03;4.10;;;1.70;;
44746;SDS011;30472;49.490;10.972;2023-08-07T08:57:29;4.97;;;2.63;;
44746;SDS011;30472;49.490;10.972;2023-08-07T08:59:56;4.77;;;2.20;;
44746;SDS011;30472;49.490;10.972;2023-08-07T09:02:22;3.07;;;2.13;;
44746;SDS011;30472;49.490;10.972;2023-08-07T09:04:48;7.80;;;2.33;;
44746;SDS011;30472;49.490;10.972;2023-08-07T09:07:14;5.13;;;2.33;;
44746;SDS011;30472;49.490;10.972;2023-08-07T09:09:41;6.00;;;1.60;;
44746;SDS011;30472;49.490;10.972;2023-08-07T09:12:11;2.13;;;1.90;;
44746;SDS011;30472;49.490;10.972;2023-08-07T09:14:44;2.87;;;2.07;;
44746;SDS011;30472;49.490;10.972;2023-08-07T09:17:13;2.90;;;1.60;;
44746;SDS011;30472;49.490;10.972;2023-08-07T09:19:40;1.90;;;1.70;;
44746;SDS011;30472;49.490;10.972;2023-08-07T09:22:07;2.63;;;1.90;;
44746;SDS011;30472;49.490;10.972;2023-08-07T09:24:33;3.73;;;1.80;;
44746;SDS011;30472;49.490;10.972;2023-08-07T09:26:59;2.77;;;1.80;;
44746;SDS011;30472;49.490;10.972;2023-08-07T09:29:25;2.13;;;1.70;;
44746;SDS011;30472;49.490;10.972;2023-08-07T09:31:53;2.07;;;1.50;;
44746;SDS011;30472;49.490;10.972;2023-08-07T09:34:19;1.87;;;1.60;;
44746;SDS011;30472;49.490;10.972;2023-08-07T09:36:45;2.40;;;1.67;;
44746;SDS011;30472;49.490;10.972;2023-08-07T09:39:11;2.83;;;2.00;;
44746;SDS011;30472;49.490;10.972;2023-08-07T09:41:36;3.23;;;1.70;;
44746;SDS011;30472;49.490;10.972;2023-08-07T09:44:06;5.27;;;1.83;;
44746;SDS011;30472;49.490;10.972;2023-08-07T09:46:42;3.53;;;2.03;;
44746;SDS011;30472;49.490;10.972;2023-08-07T09:49:09;3.07;;;1.87;;
44746;SDS011;30472;49.490;10.972;2023-08-07T09:51:44;1.77;;;1.50;;
44746;SDS011;30472;49.490;10.972;2023-08-07T09:54:11;4.00;;;1.30;;
44746;SDS011;30472;49.490;10.972;2023-08-07T09:56:36;3.07;;;1.63;;
44746;SDS011;30472;49.490;10.972;2023-08-07T09:59:05;1.63;;;1.47;;
44746;SDS011;30472;49.490;10.972;2023-08-07T10:01:32;3.50;;;1.63;;
44746;SDS011;30472;49.490;10.972;2023-08-07T10:03:58;2.67;;;1.40;;
44746;SDS011;30472;49.490;10.972;2023-08-07T10:06:24;2.43;;;1.70;;
44746;SDS011;30472;49.490;10.972;2023-08-07T10:08:50;3.73;;;1.90;;
44746;SDS011;30472;49.490;10.972;2023-08-07T10:11:17;2.30;;;1.73;;
44746;SDS011;30472;49.490;10.972;2023-08-07T10:13:43;4.30;;;1.87;;
44746;SDS011;30472;49.490;10.972;2023-08-07T10:16:09;2.87;;;1.80;;
44746;SDS011;30472;49.490;10.972;2023-08-07T10:18:35;4.00;;;1.70;;
44746;SDS011;30472;49.490;10.972;2023-08-07T10:21:02;3.23;;;1.80;;
44746;SDS011;30472;49.490;10.972;2023-08-07T10:23:29;3.07;;;2.03;;
44746;SDS011;30472;49.490;10.972;2023-08-07T10:25:55;1.73;;;1.60;;
44746;SDS011;30472;49.490;10.972;2023-08-07T10:28:22;4.37;;;1.90;;
44746;SDS011;30472;49.490;10.972;2023-08-07T10:30:49;4.43;;;1.53;;
44746;SDS011;30472;49.490;10.972;2023-08-07T10:33:15;3.60;;;1.70;;
44746;SDS011;30472;49.490;10.972;2023-08-07T10:35:47;3.63;;;1.50;;
44746;SDS011;30472;49.490;10.972;2023-08-07T10:38:13;2.90;;;1.50;;
44746;SDS011;30472;49.490;10.972;2023-08-07T10:43:25;4.93;;;1.50;;
44746;SDS011;30472;49.490;10.972;2023-08-07T10:45:52;2.60;;;1.33;;
44746;SDS011;30472;49.490;10.972;2023-08-07T10:48:19;1.70;;;1.50;;
44746;SDS011;30472;49.490;10.972;2023-08-07T10:53:29;2.60;;;1.63;;
44746;SDS011;30472;49.490;10.972;2023-08-07T10:55:55;3.57;;;1.80;;
44746;SDS011;30472;49.490;10.972;2023-08-07T10:59:10;3.70;;;1.80;;
44746;SDS011;30472;49.490;10.972;2023-08-07T11:03:58;3.13;;;1.70;;
44746;SDS011;30472;49.490;10.972;2023-08-07T11:06:29;7.57;;;1.60;;
44746;SDS011;30472;49.490;10.972;2023-08-07T11:08:56;2.17;;;1.80;;
44746;SDS011;30472;49.490;10.972;2023-08-07T11:11:23;5.73;;;1.80;;
44746;SDS011;30472;49.490;10.972;2023-08-07T11:13:49;2.40;;;1.70;;
44746;SDS011;30472;49.490;10.972;2023-08-07T11:16:14;3.97;;;1.70;;
44746;SDS011;30472;49.490;10.972;2023-08-07T11:18:40;2.30;;;1.40;;
44746;SDS011;30472;49.490;10.972;2023-08-07T11:21:11;4.97;;;1.70;;
44746;SDS011;30472;49.490;10.972;2023-08-07T11:23:39;2.40;;;1.80;;
44746;SDS011;30472;49.490;10.972;2023-08-07T11:26:06;3.13;;;1.83;;
44746;SDS011;30472;49.490;10.972;2023-08-07T11:28:33;3.17;;;1.73;;
44746;SDS011;30472;49.490;10.972;2023-08-07T11:30:59;2.40;;;1.70;;
44746;SDS011;30472;49.490;10.972;2023-08-07T11:33:26;2.97;;;1.60;;
44746;SDS011;30472;49.490;10.972;2023-08-07T11:35:52;3.13;;;1.60;;
44746;SDS011;30472;49.490;10.972;2023-08-07T11:38:34;3.30;;;1.73;;
44746;SDS011;30472;49.490;10.972;2023-08-07T11:41:03;4.00;;;1.63;;
44746;SDS011;30472;49.490;10.972;2023-08-07T11:43:31;4.53;;;1.83;;
44746;SDS011;30472;49.490;10.972;2023-08-07T11:45:59;4.60;;;1.70;;
44746;SDS011;30472;49.490;10.972;2023-08-07T11:48:27;2.47;;;1.50;;
44746;SDS011;30472;49.490;10.972;2023-08-07T11:50:54;4.03;;;1.97;;
44746;SDS011;30472;49.490;10.972;2023-08-07T11:53:21;2.73;;;1.60;;
44746;SDS011;30472;49.490;10.972;2023-08-07T11:55:51;2.30;;;1.60;;
44746;SDS011;30472;49.490;10.972;2023-08-07T11:58:21;3.17;;;1.40;;
44746;SDS011;30472;49.490;10.972;2023-08-07T12:00:48;2.63;;;1.50;;
44746;SDS011;30472;49.490;10.972;2023-08-07T12:03:30;3.40;;;1.73;;
44746;SDS011;30472;49.490;10.972;2023-08-07T12:05:58;1.53;;;1.40;;
44746;SDS011;30472;49.490;10.972;2023-08-07T12:08:31;2.67;;;1.43;;
44746;SDS011;30472;49.490;10.972;2023-08-07T12:11:02;3.47;;;1.60;;
44746;SDS011;30472;49.490;10.972;2023-08-07T12:13:29;2.83;;;1.70;;
44746;SDS011;30472;49.490;10.972;2023-08-07T12:15:57;2.93;;;1.50;;
44746;SDS011;30472;49.490;10.972;2023-08-07T12:18:23;2.80;;;1.33;;
44746;SDS011;30472;49.490;10.972;2023-08-07T12:20:51;3.27;;;1.67;;
44746;SDS011;30472;49.490;10.972;2023-08-07T12:23:18;2.70;;;1.40;;
44746;SDS011;30472;49.490;10.972;2023-08-07T12:25:46;1.90;;;1.43;;
44746;SDS011;30472;49.490;10.972;2023-08-07T12:28:11;2.73;;;1.70;;
44746;SDS011;30472;49.490;10.972;2023-08-07T12:30:38;4.80;;;1.40;;
44746;SDS011;30472;49.490;10.972;2023-08-07T12:33:04;2.10;;;1.57;;
44746;SDS011;30472;49.490;10.972;2023-08-07T12:35:31;3.87;;;1.50;;
44746;SDS011;30472;49.490;10.972;2023-08-07T12:37:57;4.03;;;1.50;;
44746;SDS011;30472;49.490;10.972;2023-08-07T12:40:22;1.43;;;1.33;;
44746;SDS011;30472;49.490;10.972;2023-08-07T12:42:51;3.43;;;1.70;;
44746;SDS011;30472;49.490;10.972;2023-08-07T12:45:17;3.00;;;1.70;;
44746;SDS011;30472;49.490;10.972;2023-08-07T12:47:44;3.97;;;1.87;;
44746;SDS011;30472;49.490;10.972;2023-08-07T12:50:11;3.50;;;1.70;;
44746;SDS011;30472;49.490;10.972;2023-08-07T12:52:37;1.47;;;1.20;;
44746;SDS011;30472;49.490;10.972;2023-08-07T12:55:03;4.53;;;1.67;;
44746;SDS011;30472;49.490;10.972;2023-08-07T12:57:30;2.23;;;1.40;;
44746;SDS011;30472;49.490;10.972;2023-08-07T12:59:56;3.23;;;1.40;;
44746;SDS011;30472;49.490;10.972;2023-08-07T13:02:22;1.97;;;1.57;;
44746;SDS011;30472;49.490;10.972;2023-08-07T13:04:47;2.73;;;1.90;;
44746;SDS011;30472;49.490;10.972;2023-08-07T13:07:13;1.77;;;1.53;;
44746;SDS011;30472;49.490;10.972;2023-08-07T13:09:38;2.30;;;1.80;;
44746;SDS011;30472;49.490;10.972;2023-08-07T13:12:04;2.40;;;1.50;;
44746;SDS011;30472;49.490;10.972;2023-08-07T13:14:30;2.07;;;1.43;;
44746;SDS011;30472;49.490;10.972;2023-08-07T13:16:55;4.50;;;1.77;;
44746;SDS011;30472;49.490;10.972;2023-08-07T13:19:21;1.50;;;1.40;;
44746;SDS011;30472;49.490;10.972;2023-08-07T13:21:46;1.10;;;1.00;;
44746;SDS011;30472;49.490;10.972;2023-08-07T13:24:12;2.93;;;1.60;;
44746;SDS011;30472;49.490;10.972;2023-08-07T13:26:38;3.90;;;1.50;;
44746;SDS011;30472;49.490;10.972;2023-08-07T13:29:09;2.03;;;1.33;;
44746;SDS011;30472;49.490;10.972;2023-08-07T13:31:38;1.80;;;1.50;;
44746;SDS011;30472;49.490;10.972;2023-08-07T13:34:04;3.77;;;1.43;;
44746;SDS011;30472;49.490;10.972;2023-08-07T13:36:33;3.10;;;1.50;;
44746;SDS011;30472;49.490;10.972;2023-08-07T13:39:00;2.93;;;1.60;;
44746;SDS011;30472;49.490;10.972;2023-08-07T13:41:26;1.70;;;1.10;;
44746;SDS011;30472;49.490;10.972;2023-08-07T13:43:53;1.73;;;1.50;;
44746;SDS011;30472;49.490;10.972;2023-08-07T13:46:18;4.73;;;1.67;;
44746;SDS011;30472;49.490;10.972;2023-08-07T13:48:44;1.77;;;1.30;;
44746;SDS011;30472;49.490;10.972;2023-08-07T13:51:10;2.03;;;1.50;;
44746;SDS011;30472;49.490;10.972;2023-08-07T13:53:36;2.10;;;1.33;;
44746;SDS011;30472;49.490;10.972;2023-08-07T13:56:02;2.03;;;1.60;;
44746;SDS011;30472;49.490;10.972;2023-08-07T13:58:28;2.63;;;1.37;;
44746;SDS011;30472;49.490;10.972;2023-08-07T14:00:54;1.50;;;1.40;;
44746;SDS011;30472;49.490;10.972;2023-08-07T14:03:21;2.03;;;1.50;;
44746;SDS011;30472;49.490;10.972;2023-08-07T14:05:46;2.07;;;1.43;;
44746;SDS011;30472;49.490;10.972;2023-08-07T14:08:12;2.77;;;1.47;;
44746;SDS011;30472;49.490;10.972;2023-08-07T14:10:38;2.23;;;1.70;;
44746;SDS011;30472;49.490;10.972;2023-08-07T14:13:05;2.60;;;1.67;;
44746;SDS011;30472;49.490;10.972;2023-08-07T14:15:31;2.40;;;1.40;;
44746;SDS011;30472;49.490;10.972;2023-08-07T14:17:57;3.73;;;1.50;;
44746;SDS011;30472;49.490;10.972;2023-08-07T14:20:22;1.73;;;1.43;;
44746;SDS011;30472;49.490;10.972;2023-08-07T14:22:48;2.10;;;1.70;;
44746;SDS011;30472;49.490;10.972;2023-08-07T14:25:17;3.77;;;1.60;;
44746;SDS011;30472;49.490;10.972;2023-08-07T14:27:42;2.63;;;1.70;;
44746;SDS011;30472;49.490;10.972;2023-08-07T14:30:08;2.67;;;1.50;;
44746;SDS011;30472;49.490;10.972;2023-08-07T14:32:34;2.77;;;1.77;;
44746;SDS011;30472;49.490;10.972;2023-08-07T14:35:01;2.90;;;2.07;;
44746;SDS011;30472;49.490;10.972;2023-08-07T14:37:27;3.53;;;1.90;;
44746;SDS011;30472;49.490;10.972;2023-08-07T14:39:53;3.33;;;1.60;;
44746;SDS011;30472;49.490;10.972;2023-08-07T14:42:18;5.37;;;2.23;;